createdAt,value
2019-05-30T00:00:56.053Z,101028.36
2019-05-30T00:03:28.498Z,101025.33
2019-05-30T00:06:00.914Z,101016.81
2019-05-30T00:08:33.343Z,101020.59
2019-05-30T00:11:06.072Z,101017.56
2019-05-30T00:13:38.528Z,101029.45
2019-05-30T00:16:10.983Z,101020.69
2019-05-30T00:18:43.352Z,101025.38
2019-05-30T00:21:15.508Z,101021.61
2019-05-30T00:23:47.887Z,101014.54
2019-05-30T00:26:20.297Z,101015.19
2019-05-30T00:28:52.671Z,101014.78
2019-05-30T00:31:24.892Z,101009.20
2019-05-30T00:33:57.510Z,101021.43
2019-05-30T00:36:30.150Z,101016.36
2019-05-30T00:39:03.905Z,101012.90
2019-05-30T00:44:08.245Z,101016.44
2019-05-30T00:46:40.788Z,101014.55
2019-05-30T00:49:12.999Z,101021.55
2019-05-30T00:51:45.320Z,101017.47
2019-05-30T00:54:17.642Z,101028.00
2019-05-30T00:56:49.994Z,101023.77
2019-05-30T00:59:22.312Z,101017.89
2019-05-30T01:01:54.688Z,101020.08
2019-05-30T01:04:27.102Z,101015.94
2019-05-30T01:06:59.403Z,101013.55
2019-05-30T01:09:32.313Z,101010.78
2019-05-30T01:12:05.286Z,101009.40
2019-05-30T01:14:37.818Z,101006.98
2019-05-30T01:17:10.140Z,101005.29
2019-05-30T01:19:42.518Z,101004.59
2019-05-30T01:22:14.917Z,101005.16
2019-05-30T01:24:47.155Z,101002.82
2019-05-30T01:27:22.152Z,101003.31
2019-05-30T01:29:54.466Z,101000.28
2019-05-30T01:32:30.107Z,101004.19
2019-05-30T01:35:03.840Z,101000.27
2019-05-30T01:37:36.362Z,100998.92
2019-05-30T01:40:09.157Z,100999.66
2019-05-30T01:42:41.475Z,100998.73
2019-05-30T01:45:14.315Z,100994.70
2019-05-30T01:47:46.754Z,100997.53
2019-05-30T01:50:19.248Z,101000.27
2019-05-30T01:52:51.994Z,100997.03
2019-05-30T01:55:24.350Z,100999.79
2019-05-30T01:58:01.576Z,100999.30
2019-05-30T02:00:55.150Z,101003.05
2019-05-30T02:03:29.260Z,101005.50
2019-05-30T02:06:01.556Z,101002.67
2019-05-30T02:08:33.950Z,101000.84
2019-05-30T02:11:07.492Z,101005.71
2019-05-30T02:13:39.971Z,101010.97
2019-05-30T02:16:13.638Z,101017.95
2019-05-30T02:18:45.890Z,101021.77
2019-05-30T02:21:18.323Z,101019.23
2019-05-30T02:23:50.606Z,101026.64
2019-05-30T02:26:22.990Z,101025.01
2019-05-30T02:28:55.324Z,101029.39
2019-05-30T02:31:38.891Z,101030.47
2019-05-30T02:34:05.379Z,101027.98
2019-05-30T02:36:37.861Z,101025.80
2019-05-30T02:39:12.023Z,101028.13
2019-05-30T02:41:44.824Z,101026.15
2019-05-30T02:44:17.345Z,101038.88
2019-05-30T02:46:49.563Z,101038.18
2019-05-30T02:49:21.947Z,101035.78
2019-05-30T02:51:54.312Z,101036.78
2019-05-30T02:54:26.716Z,101035.20
2019-05-30T02:56:59.310Z,101034.80
2019-05-30T02:59:31.551Z,101040.60
2019-05-30T03:02:07.246Z,101046.67
2019-05-30T03:04:37.991Z,101041.30
2019-05-30T03:07:11.370Z,101045.47
2019-05-30T03:09:47.616Z,101042.23
2019-05-30T03:12:20.938Z,101038.81
2019-05-30T03:14:53.654Z,101044.42
2019-05-30T03:17:26.113Z,101048.02
2019-05-30T03:19:58.733Z,101047.52
2019-05-30T03:22:31.135Z,101049.73
2019-05-30T03:25:10.186Z,101049.79
2019-05-30T03:27:41.550Z,101045.27
2019-05-30T03:30:26.056Z,101043.57
2019-05-30T03:33:18.955Z,101053.59
2019-05-30T03:35:29.861Z,101039.02
2019-05-30T03:37:59.286Z,101047.46
2019-05-30T03:40:32.137Z,101045.06
2019-05-30T03:43:06.694Z,101048.59
2019-05-30T03:45:41.000Z,101047.30
2019-05-30T03:48:16.588Z,101045.34
2019-05-30T03:50:51.950Z,101047.13
2019-05-30T03:53:24.571Z,101044.63
2019-05-30T03:55:59.660Z,101048.02
2019-05-30T03:58:40.875Z,101052.48
2019-05-30T04:01:24.640Z,101047.88
2019-05-30T04:04:09.183Z,101051.00
2019-05-30T04:06:45.394Z,101044.55
2019-05-30T04:09:24.313Z,101043.94
2019-05-30T04:12:19.997Z,101046.48
2019-05-30T04:14:55.281Z,101051.93
2019-05-30T04:17:27.630Z,101059.00
2019-05-30T04:20:00.300Z,101068.54
2019-05-30T04:22:32.804Z,101069.39
2019-05-30T04:25:08.571Z,101076.31
2019-05-30T04:27:41.098Z,101079.05
2019-05-30T04:30:14.386Z,101082.30
2019-05-30T04:32:47.416Z,101082.92
2019-05-30T04:35:21.371Z,101083.34
2019-05-30T04:37:54.166Z,101090.03
2019-05-30T04:40:26.534Z,101082.06
2019-05-30T04:42:58.961Z,101090.13
2019-05-30T04:45:31.467Z,101084.80
2019-05-30T04:48:03.938Z,101082.02
2019-05-30T04:50:36.207Z,101083.12
2019-05-30T04:53:09.991Z,101079.18
2019-05-30T04:55:42.507Z,101081.28
2019-05-30T04:58:17.042Z,101081.18
2019-05-30T05:00:49.216Z,101081.77
2019-05-30T05:03:43.569Z,101076.38
2019-05-30T05:05:55.760Z,101069.34
2019-05-30T05:08:28.155Z,101067.52
2019-05-30T05:11:00.241Z,101072.70
2019-05-30T05:13:32.658Z,101076.92
2019-05-30T05:16:22.041Z,101077.70
2019-05-30T05:18:39.824Z,101081.19
2019-05-30T05:21:12.833Z,101083.28
2019-05-30T05:23:47.335Z,101085.19
2019-05-30T05:26:19.677Z,101087.22
2019-05-30T05:28:51.924Z,101091.55
2019-05-30T05:31:24.543Z,101095.02
2019-05-30T05:33:57.493Z,101089.98
2019-05-30T05:36:30.017Z,101096.81
2019-05-30T05:39:02.806Z,101093.88
2019-05-30T05:41:35.388Z,101092.56
2019-05-30T05:44:08.066Z,101089.91
2019-05-30T05:46:40.562Z,101088.09
2019-05-30T05:49:18.960Z,101089.02
2019-05-30T05:51:55.224Z,101088.34
2019-05-30T05:54:27.355Z,101097.16
2019-05-30T05:56:59.789Z,101095.13
2019-05-30T05:59:32.077Z,101094.12
2019-05-30T06:02:04.399Z,101098.20
2019-05-30T06:04:36.752Z,101093.34
2019-05-30T06:07:09.145Z,101097.26
2019-05-30T06:09:41.547Z,101089.35
2019-05-30T06:12:13.837Z,101092.42
2019-05-30T06:14:46.233Z,101093.83
2019-05-30T06:17:19.012Z,101090.98
2019-05-30T06:19:51.847Z,101094.37
2019-05-30T06:22:25.621Z,101088.98
2019-05-30T06:24:57.856Z,101088.33
2019-05-30T06:27:30.158Z,101087.14
2019-05-30T06:30:02.380Z,101090.88
2019-05-30T06:32:34.866Z,101091.24
2019-05-30T06:35:09.198Z,101088.70
2019-05-30T06:37:42.827Z,101093.16
2019-05-30T06:40:15.715Z,101098.24
2019-05-30T06:42:48.709Z,101092.31
2019-05-30T06:45:23.670Z,101096.72
2019-05-30T06:47:55.270Z,101098.06
2019-05-30T06:50:29.056Z,101090.96
2019-05-30T06:53:01.636Z,101093.66
2019-05-30T06:55:34.137Z,101091.26
2019-05-30T06:58:06.740Z,101091.59
2019-05-30T07:00:39.194Z,101096.52
2019-05-30T07:03:13.285Z,101097.31
2019-05-30T07:05:46.368Z,101098.63
2019-05-30T07:08:19.171Z,101102.25
2019-05-30T07:10:52.419Z,101101.34
2019-05-30T07:13:25.212Z,101109.22
2019-05-30T07:15:57.651Z,101106.48
2019-05-30T07:18:33.685Z,101102.80
2019-05-30T07:21:04.087Z,101098.39
2019-05-30T07:23:39.249Z,101096.29
2019-05-30T07:26:10.766Z,101101.27
2019-05-30T07:28:44.978Z,101102.13
2019-05-30T07:31:17.361Z,101094.77
2019-05-30T07:33:51.672Z,101093.77
2019-05-30T07:36:24.701Z,101099.03
2019-05-30T07:38:57.053Z,101098.42
2019-05-30T07:41:29.261Z,101093.84
2019-05-30T07:44:01.651Z,101105.27
2019-05-30T07:46:35.131Z,101095.15
2019-05-30T07:49:07.787Z,101093.98
2019-05-30T07:51:40.740Z,101103.55
2019-05-30T07:54:13.110Z,101101.26
2019-05-30T07:56:45.554Z,101102.06
2019-05-30T07:59:17.965Z,101095.50
2019-05-30T08:01:50.342Z,101102.16
2019-05-30T08:04:36.373Z,101097.41
2019-05-30T08:07:08.939Z,101097.16
2019-05-30T08:09:42.429Z,101106.97
2019-05-30T08:12:14.819Z,101112.81
2019-05-30T08:14:47.158Z,101108.00
2019-05-30T08:17:19.508Z,101098.17
2019-05-30T08:19:51.983Z,101099.13
2019-05-30T08:22:24.361Z,101101.13
2019-05-30T08:24:56.708Z,101096.45
2019-05-30T08:27:30.149Z,101104.04
2019-05-30T08:30:02.683Z,101093.61
2019-05-30T08:32:35.264Z,101090.61
2019-05-30T08:35:08.263Z,101096.88
2019-05-30T08:37:40.611Z,101096.89
2019-05-30T08:40:14.003Z,101093.05
2019-05-30T08:42:46.973Z,101094.08
2019-05-30T08:45:19.722Z,101096.25
2019-05-30T08:47:52.140Z,101093.23
2019-05-30T08:50:24.740Z,101096.75
2019-05-30T08:52:57.484Z,101096.20
2019-05-30T08:55:30.233Z,101096.22
2019-05-30T08:58:02.854Z,101094.63
2019-05-30T09:00:35.385Z,101093.61
2019-05-30T09:03:09.335Z,101094.59
2019-05-30T09:05:58.161Z,101101.27
2019-05-30T09:08:22.287Z,101097.70
2019-05-30T09:10:54.816Z,101092.92
2019-05-30T09:13:27.403Z,101096.21
2019-05-30T09:16:01.877Z,101093.84
2019-05-30T09:18:36.836Z,101094.52
2019-05-30T09:21:09.780Z,101094.30
2019-05-30T09:23:42.369Z,101100.23
2019-05-30T09:26:16.198Z,101097.13
2019-05-30T09:28:48.755Z,101092.74
2019-05-30T09:31:21.208Z,101092.53
2019-05-30T09:33:53.597Z,101094.42
2019-05-30T09:36:26.374Z,101097.92
2019-05-30T09:38:58.686Z,101102.50
2019-05-30T09:41:31.097Z,101098.05
2019-05-30T09:44:03.623Z,101095.46
2019-05-30T09:46:36.228Z,101098.71
2019-05-30T09:49:08.562Z,101098.98
2019-05-30T09:51:42.469Z,101086.62
2019-05-30T09:54:15.895Z,101093.50
2019-05-30T09:56:48.605Z,101091.55
2019-05-30T09:59:20.890Z,101094.66
2019-05-30T10:01:54.118Z,101095.07
2019-05-30T10:04:26.828Z,101089.94
2019-05-30T10:06:59.521Z,101078.38
2019-05-30T10:09:54.787Z,101085.04
2019-05-30T10:12:34.073Z,101085.53
2019-05-30T10:19:16.239Z,101073.59
2019-05-30T10:21:51.686Z,101073.38
2019-05-30T10:25:12.309Z,101076.41
2019-05-30T10:27:31.888Z,101075.84
2019-05-30T10:30:07.439Z,101071.56
2019-05-30T10:32:40.017Z,101078.47
2019-05-30T10:35:13.188Z,101070.55
2019-05-30T10:37:47.122Z,101077.42
2019-05-30T10:40:20.471Z,101078.60
2019-05-30T10:42:53.659Z,101075.92
2019-05-30T10:48:09.092Z,101086.68
2019-05-30T10:50:41.578Z,101074.92
2019-05-30T10:53:14.080Z,101071.44
2019-05-30T10:55:48.097Z,101074.06
2019-05-30T10:58:20.703Z,101076.80
2019-05-30T11:00:58.094Z,101079.96
2019-05-30T11:03:30.738Z,101077.03
2019-05-30T11:06:23.140Z,101070.73
2019-05-30T11:08:58.483Z,101071.30
2019-05-30T11:11:30.726Z,101067.52
2019-05-30T11:14:05.095Z,101068.30
2019-05-30T11:16:39.983Z,101080.59
2019-05-30T11:19:14.169Z,101077.17
2019-05-30T11:21:47.851Z,101078.13
2019-05-30T11:24:21.048Z,101076.23
2019-05-30T11:26:55.510Z,101074.03
2019-05-30T11:29:28.566Z,101075.45
2019-05-30T11:32:04.961Z,101079.44
2019-05-30T11:34:45.767Z,101077.86
2019-05-30T11:37:20.186Z,101084.79
2019-05-30T11:39:53.246Z,101083.89
2019-05-30T11:42:25.748Z,101081.08
2019-05-30T11:44:58.261Z,101084.25
2019-05-30T11:47:31.085Z,101080.55
2019-05-30T11:50:04.866Z,101075.75
2019-05-30T11:52:37.375Z,101078.70
2019-05-30T11:55:10.060Z,101061.87
2019-05-30T11:57:42.504Z,101062.34
2019-05-30T12:00:15.353Z,101068.97
2019-05-30T12:02:50.195Z,101073.87
2019-05-30T12:05:23.206Z,101071.89
2019-05-30T12:07:56.855Z,101076.16
2019-05-30T12:10:29.762Z,101075.27
2019-05-30T12:13:02.176Z,101077.84
2019-05-30T12:15:36.393Z,101072.99
2019-05-30T12:18:10.232Z,101078.06
2019-05-30T12:20:43.635Z,101080.98
2019-05-30T12:23:16.105Z,101079.00
2019-05-30T12:25:48.890Z,101077.53
2019-05-30T12:28:22.786Z,101075.06
2019-05-30T12:31:04.276Z,101077.24
2019-05-30T12:36:33.230Z,101066.07
2019-05-30T12:39:08.971Z,101067.46
2019-05-30T12:41:44.354Z,101065.13
2019-05-30T12:44:17.912Z,101063.19
2019-05-30T12:46:50.506Z,101069.80
2019-05-30T12:49:23.150Z,101080.41
2019-05-30T12:51:56.172Z,101078.36
2019-05-30T12:54:28.580Z,101088.39
2019-05-30T12:57:01.039Z,101083.52
2019-05-30T12:59:33.287Z,101086.62
2019-05-30T13:02:07.182Z,101081.26
2019-05-30T13:04:40.029Z,101077.95
2019-05-30T13:07:13.117Z,101083.99
2019-05-30T13:09:45.867Z,101083.72
2019-05-30T13:12:19.897Z,101075.66
2019-05-30T13:14:55.498Z,101072.81
2019-05-30T13:17:28.019Z,101083.41
2019-05-30T13:20:01.466Z,101078.29
2019-05-30T13:22:35.169Z,101078.42
2019-05-30T13:25:13.421Z,101077.72
2019-05-30T13:27:47.020Z,101082.88
2019-05-30T13:30:20.013Z,101089.44
2019-05-30T13:32:52.774Z,101079.41
2019-05-30T13:35:25.375Z,101081.50
2019-05-30T13:37:58.959Z,101082.55
2019-05-30T13:40:31.590Z,101076.23
2019-05-30T13:43:04.080Z,101075.25
2019-05-30T13:45:38.958Z,101071.47
2019-05-30T13:48:11.628Z,101077.89
2019-05-30T13:50:44.766Z,101059.28
2019-05-30T13:53:17.242Z,101058.78
2019-05-30T13:55:49.990Z,101061.29
2019-05-30T13:58:22.361Z,101053.84
2019-05-30T14:00:56.140Z,101055.47
2019-05-30T14:03:28.689Z,101051.33
2019-05-30T14:06:02.946Z,101053.27
2019-05-30T14:08:41.515Z,101054.79
2019-05-30T14:11:12.533Z,101058.31
2019-05-30T14:13:45.341Z,101064.45
2019-05-30T14:16:17.584Z,101066.29
2019-05-30T14:18:51.390Z,101056.06
2019-05-30T14:21:23.784Z,101053.34
2019-05-30T14:23:56.213Z,101047.06
2019-05-30T14:26:28.798Z,101048.23
2019-05-30T14:29:02.217Z,101049.22
2019-05-30T14:31:35.225Z,101048.94
2019-05-30T14:34:08.097Z,101045.69
2019-05-30T14:36:41.347Z,101045.00
2019-05-30T14:39:14.191Z,101049.84
2019-05-30T14:41:47.162Z,101046.55
2019-05-30T14:44:19.713Z,101057.78
2019-05-30T14:46:55.815Z,101058.75
2019-05-30T14:49:45.731Z,101060.64
2019-05-30T14:52:18.801Z,101062.33
2019-05-30T14:54:58.752Z,101063.48
2019-05-30T14:57:43.434Z,101068.41
2019-05-30T15:00:54.090Z,101059.60
2019-05-30T15:03:27.554Z,101063.80
2019-05-30T15:06:38.288Z,101066.61
2019-05-30T15:09:25.604Z,101062.77
2019-05-30T15:11:53.547Z,101062.88
2019-05-30T15:14:41.259Z,101067.27
2019-05-30T15:17:19.668Z,101065.19
2019-05-30T15:19:54.857Z,101057.13
2019-05-30T15:22:28.020Z,101062.06
2019-05-30T15:25:00.628Z,101052.91
2019-05-30T15:27:33.825Z,101055.17
2019-05-30T15:30:10.550Z,101053.28
2019-05-30T15:32:43.172Z,101059.84
2019-05-30T15:35:18.969Z,101049.09
2019-05-30T15:37:50.308Z,101055.09
2019-05-30T15:40:22.605Z,101045.12
2019-05-30T15:42:55.591Z,101047.23
2019-05-30T15:45:28.511Z,101040.54
2019-05-30T15:48:05.298Z,101039.08
2019-05-30T15:50:38.637Z,101037.97
2019-05-30T15:53:15.118Z,101031.94
2019-05-30T15:55:48.098Z,101034.97
2019-05-30T15:58:20.656Z,101034.05
2019-05-30T16:00:52.964Z,101039.05
2019-05-30T16:03:26.976Z,101042.93
2019-05-30T16:06:00.703Z,101041.52
2019-05-30T16:08:33.452Z,101042.16
2019-05-30T16:11:06.525Z,101050.13
2019-05-30T16:13:39.305Z,101043.07
2019-05-30T16:16:13.470Z,101040.73
2019-05-30T16:18:47.407Z,101044.23
2019-05-30T16:21:20.301Z,101045.99
2019-05-30T16:23:54.421Z,101044.44
2019-05-30T16:26:27.206Z,101048.13
2019-05-30T16:29:00.127Z,101048.53
2019-05-30T16:31:33.051Z,101050.87
2019-05-30T16:34:07.705Z,101056.19
2019-05-30T16:36:43.565Z,101045.91
2019-05-30T16:39:16.173Z,101044.52
2019-05-30T16:41:48.817Z,101044.52
2019-05-30T16:44:22.466Z,101059.98
2019-05-30T16:46:54.930Z,101051.87
2019-05-30T16:49:28.013Z,101052.22
2019-05-30T16:52:01.154Z,101052.22
2019-05-30T16:54:33.776Z,101050.40
2019-05-30T16:57:06.210Z,101050.40
2019-05-30T16:59:38.975Z,101041.69
2019-05-30T17:02:11.958Z,101041.69
2019-05-30T17:04:45.067Z,101041.56
2019-05-30T17:07:17.528Z,101047.34
2019-05-30T17:09:49.913Z,101048.34
2019-05-30T17:12:24.086Z,101052.52
2019-05-30T17:15:15.949Z,101054.77
2019-05-30T17:17:48.985Z,101054.77
2019-05-30T17:20:22.578Z,101057.36
2019-05-30T17:22:55.269Z,101057.36
2019-05-30T17:25:29.260Z,101054.02
2019-05-30T17:28:05.140Z,101048.47
2019-05-30T17:30:46.999Z,101038.70
2019-05-30T17:33:21.780Z,101044.46
2019-05-30T17:35:54.672Z,101045.30
2019-05-30T17:38:28.741Z,101056.38
2019-05-30T17:41:01.356Z,101057.39
2019-05-30T17:43:34.305Z,101063.87
2019-05-30T17:46:07.872Z,101062.53
2019-05-30T17:48:43.642Z,101064.58
2019-05-30T17:51:19.695Z,101065.64
2019-05-30T17:53:55.643Z,101071.39
2019-05-30T17:56:28.301Z,101068.56
2019-05-30T17:59:01.884Z,101070.58
2019-05-30T18:01:35.715Z,101075.33
2019-05-30T18:04:09.997Z,101075.69
2019-05-30T18:06:46.478Z,101077.23
2019-05-30T18:09:19.044Z,101079.61
2019-05-30T18:11:52.402Z,101081.47
2019-05-30T18:14:27.416Z,101085.01
2019-05-30T18:17:00.778Z,101085.20
2019-05-30T18:19:33.195Z,101087.22
2019-05-30T18:22:05.728Z,101091.29
2019-05-30T18:24:38.423Z,101095.86
2019-05-30T18:27:11.001Z,101090.96
2019-05-30T18:29:45.217Z,101095.03
2019-05-30T18:32:18.840Z,101097.05
2019-05-30T18:34:59.647Z,101100.77
2019-05-30T18:37:32.538Z,101099.24
2019-05-30T18:40:07.431Z,101096.55
2019-05-30T18:42:40.383Z,101103.29
2019-05-30T18:45:12.787Z,101099.91
2019-05-30T18:47:48.481Z,101100.88
2019-05-30T18:50:20.902Z,101107.98
2019-05-30T18:52:53.821Z,101099.70
2019-05-30T18:55:26.567Z,101103.23
2019-05-30T18:57:59.297Z,101094.42
2019-05-30T19:00:33.215Z,101106.45
2019-05-30T19:03:06.099Z,101101.55
2019-05-30T19:05:38.741Z,101098.14
2019-05-30T19:08:13.195Z,101101.17
2019-05-30T19:10:46.074Z,101098.13
2019-05-30T19:13:21.741Z,101094.75
2019-05-30T19:18:54.571Z,101104.02
2019-05-30T19:21:27.925Z,101104.20
2019-05-30T19:24:01.852Z,101112.31
2019-05-30T19:26:37.376Z,101107.22
2019-05-30T19:29:10.824Z,101111.44
2019-05-30T19:31:46.966Z,101111.92
2019-05-30T19:34:22.265Z,101106.86
2019-05-30T19:36:55.376Z,101110.72
2019-05-30T19:39:33.600Z,101111.05
2019-05-30T19:42:06.812Z,101108.33
2019-05-30T19:44:42.290Z,101103.00
2019-05-30T19:47:15.425Z,101101.78
2019-05-30T19:49:49.412Z,101101.92
2019-05-30T19:52:21.834Z,101106.00
2019-05-30T19:54:55.333Z,101095.27
2019-05-30T19:57:27.875Z,101099.45
2019-05-30T20:00:01.230Z,101092.16
2019-05-30T20:02:34.557Z,101093.11
2019-05-30T20:05:08.292Z,101094.80
2019-05-30T20:07:41.755Z,101100.27
2019-05-30T20:10:20.149Z,101101.75
2019-05-30T20:12:52.865Z,101099.59
2019-05-30T20:15:27.594Z,101110.05
2019-05-30T20:18:01.297Z,101107.36
2019-05-30T20:20:52.893Z,101110.73
2019-05-30T20:23:17.199Z,101115.09
2019-05-30T20:25:51.037Z,101119.81
2019-05-30T20:28:23.461Z,101122.89
2019-05-30T20:31:07.826Z,101124.87
2019-05-30T20:33:42.646Z,101120.96
2019-05-30T20:36:18.673Z,101121.47
2019-05-30T20:39:07.039Z,101120.62
2019-05-30T20:41:40.958Z,101116.23
2019-05-30T20:44:14.054Z,101113.66
2019-05-30T20:46:47.346Z,101112.65
2019-05-30T20:49:19.715Z,101113.16
2019-05-30T20:51:52.092Z,101114.47
2019-05-30T20:54:24.569Z,101113.28
2019-05-30T20:56:57.063Z,101111.04
2019-05-30T20:59:34.291Z,101112.64
2019-05-30T21:02:08.608Z,101108.97
2019-05-30T21:04:41.053Z,101107.23
2019-05-30T21:07:15.658Z,101104.14
2019-05-30T21:09:50.064Z,101103.23
2019-05-30T21:12:36.863Z,101104.75
2019-05-30T21:15:03.464Z,101109.66
2019-05-30T21:17:37.786Z,101100.38
2019-05-30T21:20:12.057Z,101100.03
2019-05-30T21:22:44.817Z,101094.45
2019-05-30T21:25:17.427Z,101096.94
2019-05-30T21:27:50.790Z,101099.35
2019-05-30T21:30:25.415Z,101096.03
2019-05-30T21:32:57.560Z,101102.23
2019-05-30T21:35:30.014Z,101100.15
2019-05-30T21:38:02.415Z,101099.19
2019-05-30T21:40:34.893Z,101097.29
2019-05-30T21:43:07.494Z,101092.38
2019-05-30T21:45:42.537Z,101093.16
2019-05-30T21:48:17.196Z,101098.05
2019-05-30T21:50:50.524Z,101098.19
2019-05-30T21:53:22.702Z,101093.16
2019-05-30T21:55:55.028Z,101093.30
2019-05-30T21:58:27.641Z,101097.39
2019-05-30T22:01:24.094Z,101091.16
2019-05-30T22:03:57.246Z,101095.47
2019-05-30T22:06:30.094Z,101092.66
2019-05-30T22:09:03.773Z,101089.12
2019-05-30T22:11:36.494Z,101095.47
2019-05-30T22:14:10.067Z,101090.08
2019-05-30T22:16:43.851Z,101095.26
2019-05-30T22:19:16.682Z,101095.14
2019-05-30T22:21:50.279Z,101093.45
2019-05-30T22:24:22.874Z,101097.00
2019-05-30T22:26:55.400Z,101090.76
2019-05-30T22:29:27.669Z,101087.22
2019-05-30T22:32:02.795Z,101087.33
2019-05-30T22:34:35.138Z,101083.33
2019-05-30T22:37:07.701Z,101081.25
2019-05-30T22:39:40.328Z,101086.58
2019-05-30T22:42:12.732Z,101090.33
2019-05-30T22:44:46.450Z,101093.24
2019-05-30T22:47:19.161Z,101094.27
2019-05-30T22:49:52.836Z,101098.31
2019-05-30T22:52:25.979Z,101097.28
2019-05-30T22:54:58.388Z,101094.03
2019-05-30T22:57:30.768Z,101099.59
2019-05-30T23:00:10.755Z,101093.94
2019-05-30T23:02:45.808Z,101095.64
2019-05-30T23:05:18.942Z,101098.27
2019-05-30T23:07:53.607Z,101095.58
2019-05-30T23:10:27.564Z,101089.55
2019-05-30T23:12:59.918Z,101095.64
2019-05-30T23:15:32.417Z,101089.94
2019-05-30T23:18:06.423Z,101090.41
2019-05-30T23:20:38.827Z,101090.17
2019-05-30T23:23:11.341Z,101090.61
2019-05-30T23:25:43.537Z,101087.23
2019-05-30T23:28:23.594Z,101089.58
2019-05-30T23:30:56.298Z,101087.13
2019-05-30T23:33:28.609Z,101087.13
2019-05-30T23:36:01.424Z,101083.97
2019-05-30T23:38:33.711Z,101077.98
2019-05-30T23:41:06.875Z,101073.41
2019-05-30T23:43:53.160Z,101076.55
2019-05-30T23:46:14.001Z,101077.80
2019-05-30T23:48:46.403Z,101078.57
2019-05-30T23:51:18.915Z,101076.81
2019-05-30T23:53:52.078Z,101072.55
2019-05-30T23:56:24.512Z,101063.20
2019-05-30T23:58:56.888Z,101065.32
